My Meet Scores
Sienna Szechinski, Ultimate Gymnastics - MyMeetScores.com
Top100 | Top Teams | Upcoming Meets | Completed Meets | Latest | Add Scores | Help| Support | Bookmark and Share

Sienna Szechinski, Ultimate Gymnastics
Personal Bests
LevelVault BarsBeamFloorAA
39.6009.100 9.0759.17536.850
49.1009.075 9.4008.87535.875
69.2758.650 9.1259.05035.800
Meet Scores
Date Meet Team Session Level Division Vault Bars Beam Floor AA
2021-04-15 Illinois level 6 & Xcel Silver State Champion Ultimate Gymnastics of Gurnee 08 6 Multiple 8.600 43T 8.075 55 9.025 40 9.000 58T 34.700 51
2021-02-19 Women's Midwest Open 2021 Ultimate Gymnastics of Gurnee 07B 6 Junior A 8.850 10T 8.400 13 9.125 7 9.050 13 35.425 10
2021-01-21 King Arthur Invitational Ultimate Gymnastics 4 6 JR 8.550 11 8.550 10 8.950 10 9.050 10 35.100 11
2021-01-14 2021 Bravo Classic Ultimate Gymnastics 15 6 Jr 8.850 11 8.550 11 8.650 11 9.000 11T 35.050 11
2020-12-17 St Nick II Optional Ultimate Gymnastics 1 6 JrB 8.900 10T 7.800 13 8.725 10 9.000 13 34.425 12
2020-12-04 Wish Classic Ultimate Gymnastics ALL 6 SR 9.275 3T 8.650 10T 8.950 6 8.925 9T 35.800 8
2020-03-06 Illinois Level 4 State Championships Ultimate Gymnastics 6 4 Sr A 8.800 16 9.075 14 9.400 10 8.600 19 35.875 14
2020-02-21 Kinetic Classic Ultimate Gymnastics 06 4 Older 8.550 43 8.600 60 9.225 32T 8.675 61T 35.050 53
2020-01-24 King Arthur Invitational Ultimate Gymnastics 1 4 Sr B 8.700 5 8.625 8 9.350 3 8.350 9 35.025 5
2020-01-10 St Jude Benefit Meet Ultimate Gymnastics 4A 4 Sr A 9.000 6 8.875 11T 8.675 9 8.625 13 35.175 8
2019-12-20 2019 Women's Hawaiian Pineapple Classic Ultimate Gymnastics 7A 4 Age 11 8.575 5 8.800 7T 7.400 15 8.525 8 33.300 10
2019-12-06 Ultimate Wish Classic Ultimate Gymnastics 2 4 Sr B 9.100 3 8.300 6 9.300 4T 8.700 3 35.400 4
2019-11-08 Illinois Judges Cup Ultimate Gymnastics G4 4 All Ages 8.375 20 8.500 20T 9.075 23 8.650 16 34.600 17
2019-03-22 Illinois Gymnastics State Championships Ultimate Gymnastics 7 4 YT E 8.850 15 7.750 29 9.150 18 8.875 22 34.625 27
2019-02-22 2019 SCEGA California Classic - Women Ultimate Gymnastics 13Y 4 Jr B 8.800 6 7.450 13T 8.425 14 8.375 14 33.050 12
2019-02-15 Women's Midwest Open Ultimate Gymnastics 09 4 Junior B 7.775 18 7.850 16 8.725 11 8.750 13T 33.100 14
2019-01-25 King Arthur Invitational Ultimate Gymnastics 9 4 SR A 8.450 11 7.325 13 9.025 7 7.950 14 32.750 13
2019-01-18 2019 Bravo Classic Ultimate Gymnastics 5B 4 Jr 8.400 9T 7.950 20 8.600 14T 8.450 18 33.400 19
2019-01-11 St Jude Benefit Meet Ultimate Gymnastics 5A 4 Jr C 8.600 10T 6.800 18 8.625 10 8.775 10 32.800 15
2018-12-14 Hawaiian Pineapple Classic Ultimate Gymnastics 6A 4 Age10 8.500 3 7.950 18 9.350 8 8.700 12T 34.500 9T
2018-11-30 Ultimate Wish Classic Ultimate Gymnastics 11 4 JR B 8.750 8T 7.800 16T 8.900 9 8.600 12 34.050 13
2018-05-03 Illinois USA Gymnastics Level 3 State Championships Ultimate Gymnsatics 1 3 Jr A 9.550 6T 8.700 23T 9.000 12T 9.025 19T 36.275 18
2018-02-17 Women's Midwest Open Ultimate Gymnsatics 10 3 Sr A 9.500 1 9.100 4 9.075 4 9.175 4T 36.850 3
2018-01-26 King Arthur Invitational Ultimate Gymnsatics 7 3 SR A 9.475 3 8.250 11 9.075 5 8.625 9 35.425 9
2018-01-19 Sand Dollar/ Whitlow Invitational Ultimate Gymnsatics E11 3 Jr B 8.525 11 7.675 12 8.650 8T 7.925 11 32.775 12
2018-01-12 St Jude Benefit Meet Ultimate Gymnsatics 6A 3 JrC 9.600 1 8.900 7 8.650 9T 8.350 11 35.500 8
2017-12-01 Ultimate Wish Classic Ultimate Gymnsatics 5 3 JR 9.400 1 8.250 9T 8.250 8 8.625 5 34.525 8
2017-11-16 Paul Hamm Thanksgiving Classic - Women Ultimate Gymnsatics 1 3 Middle 9.050 8 8.400 14 7.700 19 8.500 19 33.650 17
2017-11-10 Illinois NAWGJ Judges Cup 2017 Ultimate Gymnsatics S7 3 All Ages 9.200 14T 8.150 42 8.775 17T 8.925 20T 35.050 24
Get your scores on
a t-shirt, pin, or hoodie

www.lazysuits.com